Grande Italia — IBTF — position and weather

sailwx.info

Track history (hours):
 
Tides and Currents Weather Stations Pressure Air Temp Water Temp Dewpoint Dewpoint Depression Visibility Wind Speed Wind Dir Waves Ship Positions

Grande Italia

Last reported at 2014-Nov-28 15:32 UTC. Time now 2014-Nov-29 06:13 UTC.
Position N 43°14' E 010°18'.

Length 177 m; draft 7.8 m.

Type: Ship. MMSI: 247039300.

Date/timePositionNaut miles runAvg speedWind from/ knotsBaromVisibWave heightAir tempDewpointWater temp
2014-Nov-28 15:32N 43°14' E 010°18'1515.4
2014-Nov-28 14:33N 43°29' E 010°13'8 7.4
2014-Nov-28 13:32N 43°35' E 010°19'0 0.0
2014-Nov-28 12:32N 43°35' E 010°19'0 0.0
2014-Nov-28 11:32N 43°35' E 010°19'0 0.0
2014-Nov-28 10:29N 43°35' E 010°19'0 0.0
2014-Nov-28 09:32N 43°35' E 010°19'0 0.0
2014-Nov-28 08:32N 43°35' E 010°19'0 0.0
2014-Nov-28 07:32N 43°35' E 010°19'1 0.6
2014-Nov-28 06:34N 43°34' E 010°19'7 7.0
2014-Nov-28 05:34N 43°29' E 010°12'1717.1
2014-Nov-28 04:34N 43°17' E 009°55'1716.9
2014-Nov-28 03:34N 43°15' E 009°32'1716.5
2014-Nov-28 02:33N 43°12' E 009°10'1717.0
2014-Nov-28 01:34N 43°10' E 008°47'6816.4
2014-Nov-27 21:26N 43°01' E 007°15'1416.5
2014-Nov-27 20:33N 42°59' E 006°55'1615.8
2014-Nov-27 19:34N 42°57' E 006°34'1515.4
2014-Nov-27 18:33N 42°55' E 006°13'1615.5
2014-Nov-27 17:33N 42°56' E 005°52'1716.5
2014-Nov-27 16:33N 43°02' E 005°31'1616.3
2014-Nov-27 15:33N 43°09' E 005°11'1414.2
2014-Nov-27 14:34N 43°20' E 004°58'7 6.8
2014-Nov-27 13:33N 43°24' E 004°51'0 0.0
2014-Nov-27 12:33N 43°24' E 004°51'0 0.0
2014-Nov-27 11:33N 43°24' E 004°51'0 0.0
2014-Nov-27 10:33N 43°24' E 004°51'0 0.0
2014-Nov-27 09:33N 43°24' E 004°51'0 0.0
2014-Nov-27 08:33N 43°24' E 004°51'0 0.0
2014-Nov-27 07:33N 43°24' E 004°51'0 0.0
2014-Nov-27 06:33N 43°24' E 004°51'0 0.0
2014-Nov-27 05:33N 43°24' E 004°51'0 0.0
2014-Nov-27 04:33N 43°24' E 004°51'0 0.0
2014-Nov-27 03:33N 43°24' E 004°51'0 0.0
2014-Nov-27 02:33N 43°24' E 004°51'0 0.0
2014-Nov-27 01:33N 43°24' E 004°51'6 5.9
2014-Nov-27 00:33N 43°22' E 004°58'1211.6
2014-Nov-26 23:33N 43°10' E 005°01'1414.4
2014-Nov-26 22:33N 43°00' E 004°47'1514.5
2014-Nov-26 21:31N 42°49' E 004°33'1414.1
2014-Nov-26 20:33N 42°40' E 004°20'1414.1
2014-Nov-26 19:33N 42°29' E 004°07'1514.6
2014-Nov-26 18:33N 42°19' E 003°52'1514.7
2014-Nov-26 17:34N 42°08' E 003°39'1414.1
2014-Nov-26 16:33N 41°58' E 003°26'1414.0
2014-Nov-26 15:33N 41°48' E 003°13'1413.8
2014-Nov-26 14:33N 41°39' E 002°59'1414.0
2014-Nov-26 13:33N 41°29' E 002°45'1713.7
2014-Nov-26 12:20N 41°18' E 002°29'1113.9
2014-Nov-26 11:32N 41°11' E 002°18'1414.3
2014-Nov-26 10:33N 41°02' E 002°04'1414.3
2014-Nov-26 09:33N 40°52' E 001°49'1414.4
2014-Nov-26 08:33N 40°43' E 001°35'1514.5
2014-Nov-26 07:33N 40°33' E 001°21'1514.7
2014-Nov-26 06:33N 40°23' E 001°06'1514.5
2014-Nov-26 05:33N 40°14' E 000°52'143 7.6
2014-Nov-25 10:33N 37°58' W 000°09'1414.1
2014-Nov-25 09:33N 37°47' W 000°19'1414.1
2014-Nov-25 08:32N 37°35' W 000°29'1413.9
2014-Nov-25 07:33N 37°25' W 000°42'1414.1
2014-Nov-25 06:33N 37°15' W 000°54'1614.2
2014-Nov-25 05:26N 37°05' W 001°09'20815.0
2014-Nov-24 15:33N 35°58' W 005°14'22012.1
2014-Nov-23 21:25N 37°26' W 009°26'1214.0
2014-Nov-23 20:34N 37°38' W 009°21'1514.3
2014-Nov-23 19:33N 37°52' W 009°14'1413.7
2014-Nov-23 18:33N 38°04' W 009°09'1413.8
2014-Nov-23 17:33N 38°17' W 009°03'1313.3
2014-Nov-23 16:33N 38°30' W 008°56'3 3.1
2014-Nov-23 15:33N 38°31' W 008°52'0 0.0
2014-Nov-23 14:33N 38°31' W 008°52'0 0.0
2014-Nov-23 13:33N 38°31' W 008°52'0 0.0
2014-Nov-23 12:33N 38°31' W 008°52'0 0.0
2014-Nov-23 11:33N 38°31' W 008°52'0 0.0
2014-Nov-23 10:33N 38°31' W 008°52'0 0.0
2014-Nov-23 09:33N 38°31' W 008°52'2 2.1
2014-Nov-23 08:33N 38°31' W 008°55'1010.2
2014-Nov-23 07:33N 38°23' W 009°03'1414.0
2014-Nov-23 06:33N 38°18' W 009°20'1514.8
2014-Nov-23 05:33N 38°21' W 009°38'73914.4
2014-Nov-21 02:07N 50°23' W 005°56'813.0
2014-Nov-21 01:32N 50°28' W 005°47'1313.5
2014-Nov-21 00:33N 50°36' W 005°31'1414.0
2014-Nov-20 23:33N 50°46' W 005°15'7615.2
2014-Nov-20 18:31N 51°21' W 003°27'1414.2
2014-Nov-20 17:33N 51°23' W 003°05'1514.6
2014-Nov-20 16:33N 51°30' W 002°45'1 1.2
2014-Nov-20 15:33N 51°30' W 002°43'0 0.0
2014-Nov-20 14:33N 51°30' W 002°43'0 0.0
2014-Nov-20 13:33N 51°30' W 002°43'0 0.0
2014-Nov-20 12:33N 51°30' W 002°43'0 0.0
2014-Nov-20 11:33N 51°30' W 002°43'0 0.0
2014-Nov-20 10:33N 51°30' W 002°43'0 0.0
2014-Nov-20 09:33N 51°30' W 002°43'0 0.0
2014-Nov-20 08:33N 51°30' W 002°43'0 0.0
2014-Nov-20 07:33N 51°30' W 002°43'0 0.0
2014-Nov-20 06:33N 51°30' W 002°43'0 0.0
2014-Nov-20 05:33N 51°30' W 002°43'0 0.0
2014-Nov-20 04:33N 51°30' W 002°43'0 0.0
2014-Nov-20 03:33N 51°30' W 002°43'0 0.0
2014-Nov-20 02:33N 51°30' W 002°43'0 0.0
2014-Nov-20 01:33N 51°30' W 002°43'0 0.0
2014-Nov-20 00:33N 51°30' W 002°43'0 0.0
2014-Nov-19 23:33N 51°30' W 002°43'0 0.0
2014-Nov-19 22:33N 51°30' W 002°43'0 0.0
2014-Nov-19 21:33N 51°30' W 002°43'0 0.0
2014-Nov-19 20:33N 51°30' W 002°43'0 0.0
2014-Nov-19 19:33N 51°30' W 002°43'0 0.0
2014-Nov-19 18:33N 51°30' W 002°43'0 0.0
2014-Nov-19 17:33N 51°30' W 002°43'0 0.0
2014-Nov-19 16:33N 51°30' W 002°43'0 0.4
2014-Nov-19 15:33N 51°30' W 002°43'0 0.0
2014-Nov-19 14:33N 51°30' W 002°43'4 4.1
2014-Nov-19 13:33N 51°29' W 002°50'1616.2
2014-Nov-19 12:33N 51°21' W 003°13'7711.9
2014-Nov-19 06:06N 50°49' W 005°04'713.2
2014-Nov-19 05:33N 50°44' W 005°12'1413.6
2014-Nov-19 04:33N 50°35' W 005°28'1414.0
2014-Nov-19 03:34N 50°25' W 005°44'9111.0
2014-Nov-18 19:18N 49°57' W 003°29'2414.0
2014-Nov-18 17:33N 50°01' W 002°51'  
Track history (hours):
 
Tides and Currents Weather Stations Pressure Air Temp Water Temp Dewpoint Dewpoint Depression Visibility Wind Speed Wind Dir Waves Ship Positions

Grande Italia

Last reported at 2014-Nov-28 15:32 UTC. Time now 2014-Nov-29 06:13 UTC.
Position N 43°14' E 010°18'.

Length 177 m; draft 7.8 m.

Type: Ship. MMSI: 247039300.

Date/timePositionNaut miles runAvg speedWind from/ knotsBaromVisibWave heightAir tempDewpointWater temp
2014-Nov-28 15:32N 43°14' E 010°18'1515.4
2014-Nov-28 14:33N 43°29' E 010°13'8 7.4
2014-Nov-28 13:32N 43°35' E 010°19'0 0.0
2014-Nov-28 12:32N 43°35' E 010°19'0 0.0
2014-Nov-28 11:32N 43°35' E 010°19'0 0.0
2014-Nov-28 10:29N 43°35' E 010°19'0 0.0
2014-Nov-28 09:32N 43°35' E 010°19'0 0.0
2014-Nov-28 08:32N 43°35' E 010°19'0 0.0
2014-Nov-28 07:32N 43°35' E 010°19'1 0.6
2014-Nov-28 06:34N 43°34' E 010°19'7 7.0
2014-Nov-28 05:34N 43°29' E 010°12'1717.1
2014-Nov-28 04:34N 43°17' E 009°55'1716.9
2014-Nov-28 03:34N 43°15' E 009°32'1716.5
2014-Nov-28 02:33N 43°12' E 009°10'1717.0
2014-Nov-28 01:34N 43°10' E 008°47'6816.4
2014-Nov-27 21:26N 43°01' E 007°15'1416.5
2014-Nov-27 20:33N 42°59' E 006°55'1615.8
2014-Nov-27 19:34N 42°57' E 006°34'1515.4
2014-Nov-27 18:33N 42°55' E 006°13'1615.5
2014-Nov-27 17:33N 42°56' E 005°52'1716.5
2014-Nov-27 16:33N 43°02' E 005°31'1616.3
2014-Nov-27 15:33N 43°09' E 005°11'1414.2
2014-Nov-27 14:34N 43°20' E 004°58'7 6.8
2014-Nov-27 13:33N 43°24' E 004°51'0 0.0
2014-Nov-27 12:33N 43°24' E 004°51'0 0.0
2014-Nov-27 11:33N 43°24' E 004°51'0 0.0
2014-Nov-27 10:33N 43°24' E 004°51'0 0.0
2014-Nov-27 09:33N 43°24' E 004°51'0 0.0
2014-Nov-27 08:33N 43°24' E 004°51'0 0.0
2014-Nov-27 07:33N 43°24' E 004°51'0 0.0
2014-Nov-27 06:33N 43°24' E 004°51'0 0.0
2014-Nov-27 05:33N 43°24' E 004°51'0 0.0
2014-Nov-27 04:33N 43°24' E 004°51'0 0.0
2014-Nov-27 03:33N 43°24' E 004°51'0 0.0
2014-Nov-27 02:33N 43°24' E 004°51'0 0.0
2014-Nov-27 01:33N 43°24' E 004°51'6 5.9
2014-Nov-27 00:33N 43°22' E 004°58'1211.6
2014-Nov-26 23:33N 43°10' E 005°01'1414.4
2014-Nov-26 22:33N 43°00' E 004°47'1514.5
2014-Nov-26 21:31N 42°49' E 004°33'1414.1
2014-Nov-26 20:33N 42°40' E 004°20'1414.1
2014-Nov-26 19:33N 42°29' E 004°07'1514.6
2014-Nov-26 18:33N 42°19' E 003°52'1514.7
2014-Nov-26 17:34N 42°08' E 003°39'1414.1
2014-Nov-26 16:33N 41°58' E 003°26'1414.0
2014-Nov-26 15:33N 41°48' E 003°13'1413.8
2014-Nov-26 14:33N 41°39' E 002°59'1414.0
2014-Nov-26 13:33N 41°29' E 002°45'1713.7
2014-Nov-26 12:20N 41°18' E 002°29'1113.9
2014-Nov-26 11:32N 41°11' E 002°18'1414.3
2014-Nov-26 10:33N 41°02' E 002°04'1414.3
2014-Nov-26 09:33N 40°52' E 001°49'1414.4
2014-Nov-26 08:33N 40°43' E 001°35'1514.5
2014-Nov-26 07:33N 40°33' E 001°21'1514.7
2014-Nov-26 06:33N 40°23' E 001°06'1514.5
2014-Nov-26 05:33N 40°14' E 000°52'143 7.6
2014-Nov-25 10:33N 37°58' W 000°09'1414.1
2014-Nov-25 09:33N 37°47' W 000°19'1414.1
2014-Nov-25 08:32N 37°35' W 000°29'1413.9
2014-Nov-25 07:33N 37°25' W 000°42'1414.1
2014-Nov-25 06:33N 37°15' W 000°54'1614.2
2014-Nov-25 05:26N 37°05' W 001°09'20815.0
2014-Nov-24 15:33N 35°58' W 005°14'22012.1
2014-Nov-23 21:25N 37°26' W 009°26'1214.0
2014-Nov-23 20:34N 37°38' W 009°21'1514.3
2014-Nov-23 19:33N 37°52' W 009°14'1413.7
2014-Nov-23 18:33N 38°04' W 009°09'1413.8
2014-Nov-23 17:33N 38°17' W 009°03'1313.3
2014-Nov-23 16:33N 38°30' W 008°56'3 3.1
2014-Nov-23 15:33N 38°31' W 008°52'0 0.0
2014-Nov-23 14:33N 38°31' W 008°52'0 0.0
2014-Nov-23 13:33N 38°31' W 008°52'0 0.0
2014-Nov-23 12:33N 38°31' W 008°52'0 0.0
2014-Nov-23 11:33N 38°31' W 008°52'0 0.0
2014-Nov-23 10:33N 38°31' W 008°52'0 0.0
2014-Nov-23 09:33N 38°31' W 008°52'2 2.1
2014-Nov-23 08:33N 38°31' W 008°55'1010.2
2014-Nov-23 07:33N 38°23' W 009°03'1414.0
2014-Nov-23 06:33N 38°18' W 009°20'1514.8
2014-Nov-23 05:33N 38°21' W 009°38'73914.4
2014-Nov-21 02:07N 50°23' W 005°56'813.0
2014-Nov-21 01:32N 50°28' W 005°47'1313.5
2014-Nov-21 00:33N 50°36' W 005°31'1414.0
2014-Nov-20 23:33N 50°46' W 005°15'7615.2
2014-Nov-20 18:31N 51°21' W 003°27'1414.2
2014-Nov-20 17:33N 51°23' W 003°05'1514.6
2014-Nov-20 16:33N 51°30' W 002°45'1 1.2
2014-Nov-20 15:33N 51°30' W 002°43'0 0.0
2014-Nov-20 14:33N 51°30' W 002°43'0 0.0
2014-Nov-20 13:33N 51°30' W 002°43'0 0.0
2014-Nov-20 12:33N 51°30' W 002°43'0 0.0
2014-Nov-20 11:33N 51°30' W 002°43'0 0.0
2014-Nov-20 10:33N 51°30' W 002°43'0 0.0
2014-Nov-20 09:33N 51°30' W 002°43'0 0.0
2014-Nov-20 08:33N 51°30' W 002°43'0 0.0
2014-Nov-20 07:33N 51°30' W 002°43'0 0.0
2014-Nov-20 06:33N 51°30' W 002°43'0 0.0
2014-Nov-20 05:33N 51°30' W 002°43'0 0.0
2014-Nov-20 04:33N 51°30' W 002°43'0 0.0
2014-Nov-20 03:33N 51°30' W 002°43'0 0.0
2014-Nov-20 02:33N 51°30' W 002°43'0 0.0
2014-Nov-20 01:33N 51°30' W 002°43'0 0.0
2014-Nov-20 00:33N 51°30' W 002°43'0 0.0
2014-Nov-19 23:33N 51°30' W 002°43'0 0.0
2014-Nov-19 22:33N 51°30' W 002°43'0 0.0
2014-Nov-19 21:33N 51°30' W 002°43'0 0.0
2014-Nov-19 20:33N 51°30' W 002°43'0 0.0
2014-Nov-19 19:33N 51°30' W 002°43'0 0.0
2014-Nov-19 18:33N 51°30' W 002°43'0 0.0
2014-Nov-19 17:33N 51°30' W 002°43'0 0.0
2014-Nov-19 16:33N 51°30' W 002°43'0 0.4
2014-Nov-19 15:33N 51°30' W 002°43'0 0.0
2014-Nov-19 14:33N 51°30' W 002°43'4 4.1
2014-Nov-19 13:33N 51°29' W 002°50'1616.2
2014-Nov-19 12:33N 51°21' W 003°13'7711.9
2014-Nov-19 06:06N 50°49' W 005°04'713.2
2014-Nov-19 05:33N 50°44' W 005°12'1413.6
2014-Nov-19 04:33N 50°35' W 005°28'1414.0
2014-Nov-19 03:34N 50°25' W 005°44'9111.0
2014-Nov-18 19:18N 49°57' W 003°29'2414.0
2014-Nov-18 17:33N 50°01' W 002°51'  

Dump ship's entire track history